Terminal Aerodrome Forecast
Issued by NWS Wichita, KS

Home | Current Version | Previous Version | Text Only | Print | Product List | Glossary On
Versions: 1 2 3 4 5 6 7 8 9 10 11 12 13 14 15
961
FTUS43 KICT 260410 AAC
TAFICT
TAF AMD
KICT 260410Z 2604/2624 36010KT P6SM SCT250
     FM260600 15010KT P6SM SCT120 WS020/18035KT
     FM261200 36010KT P6SM SCT050=

USA.gov is the U.S. government's official web portal to all federal, state and local government web resources and services.